sensor_id;sensor_type;location;lat;lon;timestamp;P1;durP1;ratioP1;P2;durP2;ratioP2
52786;SDS011;38661;53.152;5.846;2023-03-23T00:01:16;15.05;;;11.80;;
52786;SDS011;38661;53.152;5.846;2023-03-23T00:03:45;12.73;;;10.40;;
52786;SDS011;38661;53.152;5.846;2023-03-23T00:06:12;14.85;;;12.07;;
52786;SDS011;38661;53.152;5.846;2023-03-23T00:08:42;14.45;;;11.38;;
52786;SDS011;38661;53.152;5.846;2023-03-23T00:11:19;16.08;;;12.52;;
52786;SDS011;38661;53.152;5.846;2023-03-23T00:13:47;14.98;;;11.82;;
52786;SDS011;38661;53.152;5.846;2023-03-23T00:16:18;17.17;;;13.48;;
52786;SDS011;38661;53.152;5.846;2023-03-23T00:18:49;18.33;;;14.82;;
52786;SDS011;38661;53.152;5.846;2023-03-23T00:21:19;22.27;;;17.38;;
52786;SDS011;38661;53.152;5.846;2023-03-23T00:23:53;24.23;;;19.75;;
52786;SDS011;38661;53.152;5.846;2023-03-23T00:26:19;29.00;;;21.30;;
52786;SDS011;38661;53.152;5.846;2023-03-23T00:28:44;29.83;;;22.35;;
52786;SDS011;38661;53.152;5.846;2023-03-23T00:31:11;27.35;;;22.45;;
52786;SDS011;38661;53.152;5.846;2023-03-23T00:33:38;30.48;;;24.02;;
52786;SDS011;38661;53.152;5.846;2023-03-23T00:36:05;33.95;;;23.90;;
52786;SDS011;38661;53.152;5.846;2023-03-23T00:38:36;31.83;;;22.50;;
52786;SDS011;38661;53.152;5.846;2023-03-23T00:41:02;29.38;;;21.35;;
52786;SDS011;38661;53.152;5.846;2023-03-23T00:43:29;22.85;;;17.83;;
52786;SDS011;38661;53.152;5.846;2023-03-23T00:45:55;22.58;;;19.23;;
52786;SDS011;38661;53.152;5.846;2023-03-23T00:48:22;18.10;;;11.98;;
52786;SDS011;38661;53.152;5.846;2023-03-23T00:50:49;14.75;;;10.38;;
52786;SDS011;38661;53.152;5.846;2023-03-23T00:53:16;11.43;;;8.93;;
52786;SDS011;38661;53.152;5.846;2023-03-23T00:55:46;11.10;;;8.40;;
52786;SDS011;38661;53.152;5.846;2023-03-23T00:58:14;11.50;;;8.50;;
52786;SDS011;38661;53.152;5.846;2023-03-23T01:00:40;15.52;;;9.88;;
52786;SDS011;38661;53.152;5.846;2023-03-23T01:03:07;13.80;;;10.07;;
52786;SDS011;38661;53.152;5.846;2023-03-23T01:05:37;15.25;;;10.25;;
52786;SDS011;38661;53.152;5.846;2023-03-23T01:08:04;13.63;;;11.10;;
52786;SDS011;38661;53.152;5.846;2023-03-23T01:10:31;18.67;;;13.05;;
52786;SDS011;38661;53.152;5.846;2023-03-23T01:12:58;16.80;;;13.40;;
52786;SDS011;38661;53.152;5.846;2023-03-23T01:15:25;16.73;;;13.50;;
52786;SDS011;38661;53.152;5.846;2023-03-23T01:17:52;18.25;;;13.73;;
52786;SDS011;38661;53.152;5.846;2023-03-23T01:20:17;14.43;;;11.90;;
52786;SDS011;38661;53.152;5.846;2023-03-23T01:22:44;16.52;;;12.95;;
52786;SDS011;38661;53.152;5.846;2023-03-23T01:25:11;16.42;;;11.43;;
52786;SDS011;38661;53.152;5.846;2023-03-23T01:27:37;21.27;;;12.35;;
52786;SDS011;38661;53.152;5.846;2023-03-23T01:30:04;17.17;;;11.90;;
52786;SDS011;38661;53.152;5.846;2023-03-23T01:32:31;15.90;;;12.02;;
52786;SDS011;38661;53.152;5.846;2023-03-23T01:34:56;16.77;;;11.52;;
52786;SDS011;38661;53.152;5.846;2023-03-23T01:37:22;16.15;;;11.07;;
52786;SDS011;38661;53.152;5.846;2023-03-23T01:39:54;16.25;;;10.63;;
52786;SDS011;38661;53.152;5.846;2023-03-23T01:42:24;12.48;;;9.48;;
52786;SDS011;38661;53.152;5.846;2023-03-23T01:47:39;12.48;;;9.77;;
52786;SDS011;38661;53.152;5.846;2023-03-23T01:50:06;12.75;;;9.00;;
52786;SDS011;38661;53.152;5.846;2023-03-23T01:52:33;12.00;;;8.27;;
52786;SDS011;38661;53.152;5.846;2023-03-23T01:55:01;12.65;;;8.10;;
52786;SDS011;38661;53.152;5.846;2023-03-23T01:57:28;11.98;;;8.07;;
52786;SDS011;38661;53.152;5.846;2023-03-23T01:59:55;12.98;;;8.00;;
52786;SDS011;38661;53.152;5.846;2023-03-23T02:02:25;11.95;;;8.35;;
52786;SDS011;38661;53.152;5.846;2023-03-23T02:04:52;20.10;;;8.90;;
52786;SDS011;38661;53.152;5.846;2023-03-23T02:07:23;12.02;;;7.85;;
52786;SDS011;38661;53.152;5.846;2023-03-23T02:09:50;11.63;;;8.00;;
52786;SDS011;38661;53.152;5.846;2023-03-23T02:12:16;11.32;;;7.30;;
52786;SDS011;38661;53.152;5.846;2023-03-23T02:14:42;12.85;;;6.75;;
52786;SDS011;38661;53.152;5.846;2023-03-23T02:35:53;11.27;;;6.40;;
52786;SDS011;38661;53.152;5.846;2023-03-23T02:38:43;11.80;;;5.93;;
52786;SDS011;38661;53.152;5.846;2023-03-23T02:41:21;10.23;;;6.07;;
52786;SDS011;38661;53.152;5.846;2023-03-23T02:43:50;8.85;;;5.18;;
52786;SDS011;38661;53.152;5.846;2023-03-23T02:46:17;10.18;;;4.40;;
52786;SDS011;38661;53.152;5.846;2023-03-23T02:48:45;7.32;;;5.32;;
52786;SDS011;38661;53.152;5.846;2023-03-23T02:51:16;9.10;;;4.93;;
52786;SDS011;38661;53.152;5.846;2023-03-23T02:53:44;10.70;;;5.75;;
52786;SDS011;38661;53.152;5.846;2023-03-23T02:56:11;9.45;;;5.60;;
52786;SDS011;38661;53.152;5.846;2023-03-23T02:58:38;9.75;;;5.75;;
52786;SDS011;38661;53.152;5.846;2023-03-23T03:02:05;9.20;;;5.35;;
52786;SDS011;38661;53.152;5.846;2023-03-23T03:04:14;11.02;;;5.03;;
52786;SDS011;38661;53.152;5.846;2023-03-23T03:06:53;12.52;;;5.93;;
52786;SDS011;38661;53.152;5.846;2023-03-23T03:12:36;7.35;;;4.85;;
52786;SDS011;38661;53.152;5.846;2023-03-23T03:17:59;9.15;;;6.05;;
52786;SDS011;38661;53.152;5.846;2023-03-23T03:20:26;8.30;;;3.80;;
52786;SDS011;38661;53.152;5.846;2023-03-23T03:22:54;9.05;;;4.10;;
52786;SDS011;38661;53.152;5.846;2023-03-23T03:25:21;10.32;;;4.38;;
52786;SDS011;38661;53.152;5.846;2023-03-23T03:27:48;9.57;;;4.72;;
52786;SDS011;38661;53.152;5.846;2023-03-23T03:30:17;10.45;;;5.00;;
52786;SDS011;38661;53.152;5.846;2023-03-23T03:32:49;9.63;;;4.75;;
52786;SDS011;38661;53.152;5.846;2023-03-23T03:35:19;8.73;;;4.63;;
52786;SDS011;38661;53.152;5.846;2023-03-23T03:37:49;9.43;;;4.93;;
52786;SDS011;38661;53.152;5.846;2023-03-23T03:40:17;6.82;;;5.05;;
52786;SDS011;38661;53.152;5.846;2023-03-23T03:42:44;12.60;;;5.57;;
52786;SDS011;38661;53.152;5.846;2023-03-23T03:45:15;8.80;;;5.32;;
52786;SDS011;38661;53.152;5.846;2023-03-23T03:47:42;12.55;;;6.65;;
52786;SDS011;38661;53.152;5.846;2023-03-23T03:50:09;10.88;;;5.43;;
52786;SDS011;38661;53.152;5.846;2023-03-23T03:52:35;5.57;;;3.63;;
52786;SDS011;38661;53.152;5.846;2023-03-23T03:55:01;5.63;;;4.22;;
52786;SDS011;38661;53.152;5.846;2023-03-23T03:57:27;9.88;;;5.15;;
52786;SDS011;38661;53.152;5.846;2023-03-23T03:59:52;9.65;;;3.92;;
52786;SDS011;38661;53.152;5.846;2023-03-23T04:02:18;10.35;;;4.05;;
52786;SDS011;38661;53.152;5.846;2023-03-23T04:04:48;9.80;;;4.38;;
52786;SDS011;38661;53.152;5.846;2023-03-23T04:07:15;7.90;;;4.97;;
52786;SDS011;38661;53.152;5.846;2023-03-23T04:09:45;9.95;;;4.35;;
52786;SDS011;38661;53.152;5.846;2023-03-23T04:12:13;8.13;;;4.35;;
52786;SDS011;38661;53.152;5.846;2023-03-23T04:14:40;14.13;;;3.50;;
52786;SDS011;38661;53.152;5.846;2023-03-23T04:17:05;6.88;;;3.20;;
52786;SDS011;38661;53.152;5.846;2023-03-23T04:19:34;11.80;;;3.33;;
52786;SDS011;38661;53.152;5.846;2023-03-23T04:22:02;7.82;;;3.03;;
52786;SDS011;38661;53.152;5.846;2023-03-23T04:24:29;7.38;;;2.88;;
52786;SDS011;38661;53.152;5.846;2023-03-23T04:26:58;13.27;;;3.83;;
52786;SDS011;38661;53.152;5.846;2023-03-23T04:29:24;9.18;;;3.03;;
52786;SDS011;38661;53.152;5.846;2023-03-23T04:31:51;9.52;;;2.88;;
52786;SDS011;38661;53.152;5.846;2023-03-23T04:34:17;9.63;;;3.35;;
52786;SDS011;38661;53.152;5.846;2023-03-23T04:36:44;16.63;;;3.75;;
52786;SDS011;38661;53.152;5.846;2023-03-23T04:39:11;11.18;;;3.90;;
52786;SDS011;38661;53.152;5.846;2023-03-23T04:41:38;9.68;;;2.72;;
52786;SDS011;38661;53.152;5.846;2023-03-23T04:44:05;13.98;;;2.78;;
52786;SDS011;38661;53.152;5.846;2023-03-23T04:46:32;14.85;;;3.95;;
52786;SDS011;38661;53.152;5.846;2023-03-23T04:48:58;13.90;;;2.92;;
52786;SDS011;38661;53.152;5.846;2023-03-23T04:51:25;15.15;;;3.45;;
52786;SDS011;38661;53.152;5.846;2023-03-23T04:53:52;15.25;;;3.20;;
52786;SDS011;38661;53.152;5.846;2023-03-23T04:56:18;15.20;;;4.43;;
52786;SDS011;38661;53.152;5.846;2023-03-23T04:58:44;33.28;;;5.85;;
52786;SDS011;38661;53.152;5.846;2023-03-23T05:01:10;15.32;;;3.80;;
52786;SDS011;38661;53.152;5.846;2023-03-23T05:03:39;11.80;;;3.75;;
52786;SDS011;38661;53.152;5.846;2023-03-23T05:06:05;18.52;;;4.18;;
52786;SDS011;38661;53.152;5.846;2023-03-23T05:08:32;16.35;;;3.42;;
52786;SDS011;38661;53.152;5.846;2023-03-23T05:10:59;20.73;;;4.05;;
52786;SDS011;38661;53.152;5.846;2023-03-23T05:13:28;13.90;;;4.03;;
52786;SDS011;38661;53.152;5.846;2023-03-23T05:15:54;7.18;;;2.35;;
52786;SDS011;38661;53.152;5.846;2023-03-23T05:18:20;16.38;;;4.97;;
52786;SDS011;38661;53.152;5.846;2023-03-23T05:20:46;14.55;;;3.88;;
52786;SDS011;38661;53.152;5.846;2023-03-23T05:23:12;15.77;;;4.63;;
52786;SDS011;38661;53.152;5.846;2023-03-23T05:25:38;24.05;;;4.63;;
52786;SDS011;38661;53.152;5.846;2023-03-23T05:28:07;23.55;;;5.18;;
52786;SDS011;38661;53.152;5.846;2023-03-23T05:30:34;15.13;;;4.35;;
52786;SDS011;38661;53.152;5.846;2023-03-23T05:33:00;20.98;;;5.07;;
52786;SDS011;38661;53.152;5.846;2023-03-23T05:35:26;18.77;;;4.45;;
52786;SDS011;38661;53.152;5.846;2023-03-23T05:37:52;20.48;;;4.78;;
52786;SDS011;38661;53.152;5.846;2023-03-23T05:40:18;21.20;;;4.93;;
52786;SDS011;38661;53.152;5.846;2023-03-23T05:42:45;15.43;;;3.95;;
52786;SDS011;38661;53.152;5.846;2023-03-23T05:45:12;19.65;;;4.85;;
52786;SDS011;38661;53.152;5.846;2023-03-23T05:47:38;21.17;;;4.63;;
52786;SDS011;38661;53.152;5.846;2023-03-23T05:50:06;24.75;;;4.97;;
52786;SDS011;38661;53.152;5.846;2023-03-23T05:52:34;22.67;;;5.38;;
52786;SDS011;38661;53.152;5.846;2023-03-23T05:55:01;23.65;;;5.38;;
52786;SDS011;38661;53.152;5.846;2023-03-23T05:57:28;19.98;;;4.00;;
52786;SDS011;38661;53.152;5.846;2023-03-23T05:59:54;15.05;;;3.53;;
52786;SDS011;38661;53.152;5.846;2023-03-23T06:02:21;13.25;;;3.72;;
52786;SDS011;38661;53.152;5.846;2023-03-23T06:04:48;13.45;;;4.07;;
52786;SDS011;38661;53.152;5.846;2023-03-23T06:07:14;9.98;;;2.80;;
52786;SDS011;38661;53.152;5.846;2023-03-23T06:09:40;11.13;;;2.80;;
52786;SDS011;38661;53.152;5.846;2023-03-23T06:12:07;8.65;;;1.75;;
52786;SDS011;38661;53.152;5.846;2023-03-23T06:14:34;8.13;;;1.88;;
52786;SDS011;38661;53.152;5.846;2023-03-23T06:17:01;8.73;;;3.30;;
52786;SDS011;38661;53.152;5.846;2023-03-23T06:19:27;9.13;;;2.00;;
52786;SDS011;38661;53.152;5.846;2023-03-23T06:21:56;9.77;;;2.72;;
52786;SDS011;38661;53.152;5.846;2023-03-23T06:24:22;11.38;;;2.80;;
52786;SDS011;38661;53.152;5.846;2023-03-23T06:26:48;9.65;;;2.63;;
52786;SDS011;38661;53.152;5.846;2023-03-23T06:29:15;16.83;;;3.05;;
52786;SDS011;38661;53.152;5.846;2023-03-23T06:31:43;15.10;;;2.63;;
52786;SDS011;38661;53.152;5.846;2023-03-23T06:34:11;13.18;;;3.13;;
52786;SDS011;38661;53.152;5.846;2023-03-23T06:36:37;14.48;;;3.03;;
52786;SDS011;38661;53.152;5.846;2023-03-23T06:39:03;9.45;;;3.08;;
52786;SDS011;38661;53.152;5.846;2023-03-23T06:41:30;8.70;;;2.55;;
52786;SDS011;38661;53.152;5.846;2023-03-23T06:43:56;7.40;;;2.63;;
52786;SDS011;38661;53.152;5.846;2023-03-23T06:46:22;14.15;;;3.67;;
52786;SDS011;38661;53.152;5.846;2023-03-23T06:48:48;19.80;;;5.38;;
52786;SDS011;38661;53.152;5.846;2023-03-23T06:51:15;16.38;;;4.90;;
52786;SDS011;38661;53.152;5.846;2023-03-23T06:53:42;17.90;;;4.32;;
52786;SDS011;38661;53.152;5.846;2023-03-23T06:56:08;22.52;;;5.80;;
52786;SDS011;38661;53.152;5.846;2023-03-23T06:58:34;21.85;;;5.07;;
52786;SDS011;38661;53.152;5.846;2023-03-23T07:01:00;26.33;;;6.35;;
52786;SDS011;38661;53.152;5.846;2023-03-23T07:03:26;25.92;;;7.10;;
52786;SDS011;38661;53.152;5.846;2023-03-23T07:05:53;28.20;;;5.90;;
52786;SDS011;38661;53.152;5.846;2023-03-23T07:08:19;21.33;;;5.95;;
52786;SDS011;38661;53.152;5.846;2023-03-23T07:10:45;30.45;;;5.97;;
52786;SDS011;38661;53.152;5.846;2023-03-23T07:13:11;22.77;;;5.38;;
52786;SDS011;38661;53.152;5.846;2023-03-23T07:15:38;27.95;;;6.32;;
52786;SDS011;38661;53.152;5.846;2023-03-23T07:18:04;29.65;;;7.68;;
52786;SDS011;38661;53.152;5.846;2023-03-23T07:20:30;30.10;;;6.70;;
52786;SDS011;38661;53.152;5.846;2023-03-23T07:22:55;21.00;;;5.78;;
52786;SDS011;38661;53.152;5.846;2023-03-23T07:25:21;27.63;;;7.63;;
52786;SDS011;38661;53.152;5.846;2023-03-23T07:27:47;27.05;;;7.43;;
52786;SDS011;38661;53.152;5.846;2023-03-23T07:30:13;28.20;;;7.45;;
52786;SDS011;38661;53.152;5.846;2023-03-23T07:32:40;31.60;;;7.30;;
52786;SDS011;38661;53.152;5.846;2023-03-23T07:35:06;27.05;;;6.18;;
52786;SDS011;38661;53.152;5.846;2023-03-23T07:37:34;25.52;;;6.07;;
52786;SDS011;38661;53.152;5.846;2023-03-23T07:40:01;26.83;;;6.38;;
52786;SDS011;38661;53.152;5.846;2023-03-23T07:42:39;33.10;;;8.07;;
52786;SDS011;38661;53.152;5.846;2023-03-23T07:45:12;34.03;;;9.05;;
52786;SDS011;38661;53.152;5.846;2023-03-23T07:47:39;33.70;;;7.80;;
52786;SDS011;38661;53.152;5.846;2023-03-23T07:50:05;26.27;;;5.75;;
52786;SDS011;38661;53.152;5.846;2023-03-23T07:52:32;31.40;;;6.05;;
52786;SDS011;38661;53.152;5.846;2023-03-23T07:54:59;30.48;;;7.00;;
52786;SDS011;38661;53.152;5.846;2023-03-23T07:57:28;28.90;;;8.10;;
52786;SDS011;38661;53.152;5.846;2023-03-23T07:59:55;25.95;;;6.82;;
52786;SDS011;38661;53.152;5.846;2023-03-23T08:02:22;24.27;;;6.35;;
52786;SDS011;38661;53.152;5.846;2023-03-23T08:04:49;28.98;;;6.30;;
52786;SDS011;38661;53.152;5.846;2023-03-23T08:07:16;32.13;;;6.32;;
52786;SDS011;38661;53.152;5.846;2023-03-23T08:09:44;22.38;;;5.55;;
52786;SDS011;38661;53.152;5.846;2023-03-23T08:12:10;23.75;;;6.35;;
52786;SDS011;38661;53.152;5.846;2023-03-23T08:14:36;22.52;;;5.88;;
52786;SDS011;38661;53.152;5.846;2023-03-23T08:17:02;31.67;;;7.50;;
52786;SDS011;38661;53.152;5.846;2023-03-23T08:19:27;27.40;;;6.05;;
52786;SDS011;38661;53.152;5.846;2023-03-23T08:21:53;24.60;;;6.15;;
52786;SDS011;38661;53.152;5.846;2023-03-23T08:24:19;30.58;;;8.25;;
52786;SDS011;38661;53.152;5.846;2023-03-23T08:26:45;27.65;;;7.00;;
52786;SDS011;38661;53.152;5.846;2023-03-23T08:29:10;27.80;;;6.65;;
52786;SDS011;38661;53.152;5.846;2023-03-23T08:31:37;32.95;;;6.47;;
52786;SDS011;38661;53.152;5.846;2023-03-23T08:34:04;28.63;;;7.57;;
52786;SDS011;38661;53.152;5.846;2023-03-23T08:36:30;36.05;;;6.85;;
52786;SDS011;38661;53.152;5.846;2023-03-23T08:38:57;26.40;;;5.80;;
52786;SDS011;38661;53.152;5.846;2023-03-23T08:41:23;22.23;;;6.15;;
52786;SDS011;38661;53.152;5.846;2023-03-23T08:43:49;28.00;;;6.43;;
52786;SDS011;38661;53.152;5.846;2023-03-23T08:46:15;21.05;;;5.53;;
52786;SDS011;38661;53.152;5.846;2023-03-23T08:48:41;37.08;;;7.32;;
52786;SDS011;38661;53.152;5.846;2023-03-23T08:51:09;22.15;;;5.18;;
52786;SDS011;38661;53.152;5.846;2023-03-23T08:53:36;25.75;;;6.53;;
52786;SDS011;38661;53.152;5.846;2023-03-23T08:56:02;26.70;;;6.22;;
52786;SDS011;38661;53.152;5.846;2023-03-23T08:58:30;19.33;;;5.40;;
52786;SDS011;38661;53.152;5.846;2023-03-23T09:00:55;29.85;;;7.38;;
52786;SDS011;38661;53.152;5.846;2023-03-23T09:03:21;26.98;;;7.05;;
52786;SDS011;38661;53.152;5.846;2023-03-23T09:05:47;27.02;;;6.55;;
52786;SDS011;38661;53.152;5.846;2023-03-23T09:08:13;23.92;;;5.97;;
52786;SDS011;38661;53.152;5.846;2023-03-23T09:10:39;18.42;;;5.47;;
52786;SDS011;38661;53.152;5.846;2023-03-23T09:13:05;24.95;;;6.25;;
52786;SDS011;38661;53.152;5.846;2023-03-23T09:15:31;26.40;;;5.28;;
52786;SDS011;38661;53.152;5.846;2023-03-23T09:17:58;23.30;;;4.97;;
52786;SDS011;38661;53.152;5.846;2023-03-23T09:20:24;20.85;;;6.05;;
52786;SDS011;38661;53.152;5.846;2023-03-23T09:22:52;22.13;;;5.20;;
52786;SDS011;38661;53.152;5.846;2023-03-23T09:25:20;23.55;;;6.72;;
52786;SDS011;38661;53.152;5.846;2023-03-23T09:27:49;18.73;;;5.60;;
52786;SDS011;38661;53.152;5.846;2023-03-23T09:30:21;29.77;;;7.40;;
52786;SDS011;38661;53.152;5.846;2023-03-23T09:32:59;24.92;;;6.88;;
52786;SDS011;38661;53.152;5.846;2023-03-23T09:35:26;25.20;;;5.57;;
52786;SDS011;38661;53.152;5.846;2023-03-23T09:37:53;27.08;;;6.32;;
52786;SDS011;38661;53.152;5.846;2023-03-23T09:45:39;22.83;;;6.67;;
52786;SDS011;38661;53.152;5.846;2023-03-23T09:48:38;23.90;;;5.07;;
52786;SDS011;38661;53.152;5.846;2023-03-23T09:54:21;36.72;;;7.68;;
52786;SDS011;38661;53.152;5.846;2023-03-23T09:57:01;25.45;;;5.30;;
52786;SDS011;38661;53.152;5.846;2023-03-23T10:02:18;24.13;;;5.22;;
52786;SDS011;38661;53.152;5.846;2023-03-23T10:04:47;18.60;;;6.13;;
52786;SDS011;38661;53.152;5.846;2023-03-23T10:09:46;30.10;;;7.13;;
52786;SDS011;38661;53.152;5.846;2023-03-23T10:15:10;17.70;;;4.93;;
52786;SDS011;38661;53.152;5.846;2023-03-23T10:23:01;17.73;;;5.13;;
52786;SDS011;38661;53.152;5.846;2023-03-23T10:25:37;24.63;;;5.65;;
52786;SDS011;38661;53.152;5.846;2023-03-23T10:28:13;24.23;;;6.70;;
52786;SDS011;38661;53.152;5.846;2023-03-23T10:30:45;18.88;;;5.47;;
52786;SDS011;38661;53.152;5.846;2023-03-23T10:36:07;25.80;;;6.25;;
52786;SDS011;38661;53.152;5.846;2023-03-23T10:38:43;22.05;;;5.50;;
52786;SDS011;38661;53.152;5.846;2023-03-23T10:41:13;26.05;;;6.50;;
52786;SDS011;38661;53.152;5.846;2023-03-23T10:43:41;18.85;;;5.22;;
52786;SDS011;38661;53.152;5.846;2023-03-23T10:48:56;18.70;;;4.57;;
52786;SDS011;38661;53.152;5.846;2023-03-23T10:51:27;18.25;;;4.70;;
52786;SDS011;38661;53.152;5.846;2023-03-23T10:54:05;21.02;;;5.00;;
52786;SDS011;38661;53.152;5.846;2023-03-23T10:56:38;18.67;;;4.80;;
52786;SDS011;38661;53.152;5.846;2023-03-23T10:59:19;20.92;;;5.05;;
52786;SDS011;38661;53.152;5.846;2023-03-23T11:01:52;21.33;;;4.57;;
52786;SDS011;38661;53.152;5.846;2023-03-23T11:04:20;18.90;;;5.05;;
52786;SDS011;38661;53.152;5.846;2023-03-23T11:06:49;17.08;;;4.72;;
52786;SDS011;38661;53.152;5.846;2023-03-23T11:09:20;17.80;;;5.43;;
52786;SDS011;38661;53.152;5.846;2023-03-23T11:11:54;13.10;;;3.33;;
52786;SDS011;38661;53.152;5.846;2023-03-23T11:16:58;19.15;;;6.38;;
52786;SDS011;38661;53.152;5.846;2023-03-23T11:19:29;12.55;;;4.00;;
52786;SDS011;38661;53.152;5.846;2023-03-23T11:24:30;17.33;;;3.92;;
52786;SDS011;38661;53.152;5.846;2023-03-23T11:26:58;17.30;;;3.78;;
52786;SDS011;38661;53.152;5.846;2023-03-23T11:29:26;18.15;;;4.72;;
52786;SDS011;38661;53.152;5.846;2023-03-23T11:32:01;16.58;;;3.80;;
52786;SDS011;38661;53.152;5.846;2023-03-23T11:34:40;15.20;;;3.28;;
52786;SDS011;38661;53.152;5.846;2023-03-23T11:39:47;17.10;;;3.85;;
52786;SDS011;38661;53.152;5.846;2023-03-23T11:42:20;19.02;;;5.80;;
52786;SDS011;38661;53.152;5.846;2023-03-23T11:44:52;20.25;;;4.68;;
52786;SDS011;38661;53.152;5.846;2023-03-23T11:52:44;16.92;;;3.92;;
52786;SDS011;38661;53.152;5.846;2023-03-23T11:55:23;12.50;;;3.25;;
52786;SDS011;38661;53.152;5.846;2023-03-23T11:57:52;11.75;;;3.33;;
52786;SDS011;38661;53.152;5.846;2023-03-23T12:00:20;18.88;;;4.85;;
52786;SDS011;38661;53.152;5.846;2023-03-23T12:05:30;21.05;;;4.68;;
52786;SDS011;38661;53.152;5.846;2023-03-23T12:13:52;22.88;;;4.45;;
52786;SDS011;38661;53.152;5.846;2023-03-23T12:19:31;17.80;;;3.50;;
52786;SDS011;38661;53.152;5.846;2023-03-23T12:22:05;18.75;;;3.85;;
52786;SDS011;38661;53.152;5.846;2023-03-23T12:30:15;10.98;;;3.17;;
52786;SDS011;38661;53.152;5.846;2023-03-23T12:41:29;15.77;;;3.58;;
52786;SDS011;38661;53.152;5.846;2023-03-23T12:44:09;14.43;;;4.15;;
52786;SDS011;38661;53.152;5.846;2023-03-23T12:54:20;16.60;;;5.22;;
52786;SDS011;38661;53.152;5.846;2023-03-23T12:57:09;12.57;;;3.15;;
52786;SDS011;38661;53.152;5.846;2023-03-23T12:59:57;16.50;;;4.13;;
52786;SDS011;38661;53.152;5.846;2023-03-23T13:02:35;21.05;;;5.60;;
52786;SDS011;38661;53.152;5.846;2023-03-23T13:07:50;14.07;;;4.05;;
52786;SDS011;38661;53.152;5.846;2023-03-23T13:10:38;15.60;;;4.07;;
52786;SDS011;38661;53.152;5.846;2023-03-23T13:13:14;20.50;;;4.45;;
52786;SDS011;38661;53.152;5.846;2023-03-23T13:15:49;18.63;;;4.50;;
52786;SDS011;38661;53.152;5.846;2023-03-23T13:18:55;12.95;;;4.32;;
52786;SDS011;38661;53.152;5.846;2023-03-23T13:21:27;22.70;;;5.43;;
52786;SDS011;38661;53.152;5.846;2023-03-23T13:24:23;18.67;;;5.43;;
52786;SDS011;38661;53.152;5.846;2023-03-23T13:26:52;18.58;;;4.35;;
52786;SDS011;38661;53.152;5.846;2023-03-23T13:29:22;21.70;;;5.10;;
52786;SDS011;38661;53.152;5.846;2023-03-23T13:31:50;20.20;;;4.28;;
52786;SDS011;38661;53.152;5.846;2023-03-23T13:34:28;20.05;;;4.53;;
52786;SDS011;38661;53.152;5.846;2023-03-23T13:36:59;19.15;;;4.32;;
52786;SDS011;38661;53.152;5.846;2023-03-23T13:39:52;18.38;;;4.82;;
52786;SDS011;38661;53.152;5.846;2023-03-23T13:42:27;16.85;;;4.30;;
52786;SDS011;38661;53.152;5.846;2023-03-23T13:45:17;17.90;;;4.43;;
52786;SDS011;38661;53.152;5.846;2023-03-23T13:50:59;17.42;;;4.70;;
52786;SDS011;38661;53.152;5.846;2023-03-23T13:58:52;13.90;;;3.35;;
52786;SDS011;38661;53.152;5.846;2023-03-23T14:01:37;13.93;;;3.75;;
52786;SDS011;38661;53.152;5.846;2023-03-23T14:04:17;11.82;;;3.60;;
52786;SDS011;38661;53.152;5.846;2023-03-23T14:06:45;18.40;;;4.20;;
52786;SDS011;38661;53.152;5.846;2023-03-23T14:14:23;12.50;;;3.75;;
52786;SDS011;38661;53.152;5.846;2023-03-23T14:17:05;14.10;;;3.72;;
52786;SDS011;38661;53.152;5.846;2023-03-23T14:19:31;9.55;;;4.35;;
52786;SDS011;38661;53.152;5.846;2023-03-23T14:21:59;15.27;;;3.95;;
52786;SDS011;38661;53.152;5.846;2023-03-23T14:24:27;11.23;;;3.00;;
52786;SDS011;38661;53.152;5.846;2023-03-23T14:27:11;10.73;;;3.65;;
52786;SDS011;38661;53.152;5.846;2023-03-23T14:29:39;15.57;;;3.88;;
52786;SDS011;38661;53.152;5.846;2023-03-23T14:32:06;13.85;;;3.05;;
52786;SDS011;38661;53.152;5.846;2023-03-23T14:34:35;11.27;;;3.90;;
52786;SDS011;38661;53.152;5.846;2023-03-23T14:37:01;8.50;;;3.35;;
52786;SDS011;38661;53.152;5.846;2023-03-23T14:39:28;8.38;;;2.78;;
52786;SDS011;38661;53.152;5.846;2023-03-23T14:42:02;10.60;;;3.95;;
52786;SDS011;38661;53.152;5.846;2023-03-23T14:44:33;10.27;;;3.17;;
52786;SDS011;38661;53.152;5.846;2023-03-23T14:47:03;12.95;;;3.60;;
52786;SDS011;38661;53.152;5.846;2023-03-23T14:49:32;11.55;;;2.95;;
52786;SDS011;38661;53.152;5.846;2023-03-23T14:52:08;8.15;;;3.00;;
52786;SDS011;38661;53.152;5.846;2023-03-23T14:54:38;12.45;;;3.05;;
52786;SDS011;38661;53.152;5.846;2023-03-23T14:57:20;15.30;;;5.13;;
52786;SDS011;38661;53.152;5.846;2023-03-23T14:59:53;19.08;;;4.53;;
52786;SDS011;38661;53.152;5.846;2023-03-23T15:02:27;12.75;;;3.25;;
52786;SDS011;38661;53.152;5.846;2023-03-23T15:04:57;12.23;;;3.83;;
52786;SDS011;38661;53.152;5.846;2023-03-23T15:07:27;13.43;;;4.25;;
52786;SDS011;38661;53.152;5.846;2023-03-23T15:09:57;15.35;;;3.60;;
52786;SDS011;38661;53.152;5.846;2023-03-23T15:12:24;11.18;;;2.90;;
52786;SDS011;38661;53.152;5.846;2023-03-23T15:14:54;8.23;;;2.03;;
52786;SDS011;38661;53.152;5.846;2023-03-23T15:17:26;8.30;;;3.08;;
52786;SDS011;38661;53.152;5.846;2023-03-23T15:19:54;15.07;;;3.63;;
52786;SDS011;38661;53.152;5.846;2023-03-23T15:22:29;14.77;;;4.75;;
52786;SDS011;38661;53.152;5.846;2023-03-23T15:25:10;14.25;;;3.00;;
52786;SDS011;38661;53.152;5.846;2023-03-23T15:27:41;12.85;;;3.70;;
52786;SDS011;38661;53.152;5.846;2023-03-23T15:32:47;20.33;;;4.53;;
52786;SDS011;38661;53.152;5.846;2023-03-23T15:35:22;16.73;;;4.85;;
52786;SDS011;38661;53.152;5.846;2023-03-23T15:37:57;13.75;;;3.83;;
52786;SDS011;38661;53.152;5.846;2023-03-23T15:40:25;18.63;;;6.35;;
52786;SDS011;38661;53.152;5.846;2023-03-23T15:43:07;15.27;;;3.60;;
52786;SDS011;38661;53.152;5.846;2023-03-23T15:45:52;15.98;;;4.18;;
52786;SDS011;38661;53.152;5.846;2023-03-23T15:48:20;15.25;;;4.78;;
52786;SDS011;38661;53.152;5.846;2023-03-23T15:50:49;14.30;;;4.05;;
52786;SDS011;38661;53.152;5.846;2023-03-23T15:53:25;18.60;;;5.03;;
52786;SDS011;38661;53.152;5.846;2023-03-23T15:55:57;18.45;;;5.32;;
52786;SDS011;38661;53.152;5.846;2023-03-23T15:58:29;17.88;;;4.25;;
52786;SDS011;38661;53.152;5.846;2023-03-23T16:00:55;21.23;;;4.90;;
52786;SDS011;38661;53.152;5.846;2023-03-23T16:03:27;16.08;;;4.13;;
52786;SDS011;38661;53.152;5.846;2023-03-23T16:05:58;16.92;;;4.05;;
52786;SDS011;38661;53.152;5.846;2023-03-23T16:08:27;18.25;;;4.40;;
52786;SDS011;38661;53.152;5.846;2023-03-23T16:10:53;19.40;;;4.75;;
52786;SDS011;38661;53.152;5.846;2023-03-23T16:13:19;20.02;;;5.50;;
52786;SDS011;38661;53.152;5.846;2023-03-23T16:15:45;13.85;;;4.10;;
52786;SDS011;38661;53.152;5.846;2023-03-23T16:18:19;18.90;;;4.30;;
52786;SDS011;38661;53.152;5.846;2023-03-23T16:20:46;15.43;;;4.43;;
52786;SDS011;38661;53.152;5.846;2023-03-23T16:23:13;20.50;;;4.60;;
52786;SDS011;38661;53.152;5.846;2023-03-23T16:25:39;18.75;;;4.90;;
52786;SDS011;38661;53.152;5.846;2023-03-23T16:28:07;26.63;;;5.72;;
52786;SDS011;38661;53.152;5.846;2023-03-23T16:30:38;22.15;;;6.00;;
52786;SDS011;38661;53.152;5.846;2023-03-23T16:33:04;21.55;;;6.22;;
52786;SDS011;38661;53.152;5.846;2023-03-23T16:35:30;20.95;;;4.90;;
52786;SDS011;38661;53.152;5.846;2023-03-23T16:37:57;18.50;;;5.18;;
52786;SDS011;38661;53.152;5.846;2023-03-23T16:40:23;18.75;;;4.53;;
52786;SDS011;38661;53.152;5.846;2023-03-23T16:42:49;16.88;;;5.90;;
52786;SDS011;38661;53.152;5.846;2023-03-23T16:45:15;23.30;;;5.10;;
52786;SDS011;38661;53.152;5.846;2023-03-23T16:47:41;21.77;;;5.95;;
52786;SDS011;38661;53.152;5.846;2023-03-23T16:50:09;25.65;;;6.75;;